sensor_id;sensor_type;location;lat;lon;timestamp;P1;durP1;ratioP1;P2;durP2;ratioP2
75165;SDS011;63747;48.042;10.088;2024-01-06T00:02:27;15.23;;;10.33;;
75165;SDS011;63747;48.042;10.088;2024-01-06T00:05:28;13.20;;;9.20;;
75165;SDS011;63747;48.042;10.088;2024-01-06T00:08:29;11.70;;;8.00;;
75165;SDS011;63747;48.042;10.088;2024-01-06T00:11:29;13.83;;;9.27;;
75165;SDS011;63747;48.042;10.088;2024-01-06T00:14:30;13.47;;;9.47;;
75165;SDS011;63747;48.042;10.088;2024-01-06T00:17:31;10.20;;;8.13;;
75165;SDS011;63747;48.042;10.088;2024-01-06T00:20:32;10.00;;;8.00;;
75165;SDS011;63747;48.042;10.088;2024-01-06T00:23:33;9.63;;;7.70;;
75165;SDS011;63747;48.042;10.088;2024-01-06T00:26:33;11.73;;;8.93;;
75165;SDS011;63747;48.042;10.088;2024-01-06T00:29:34;10.13;;;8.50;;
75165;SDS011;63747;48.042;10.088;2024-01-06T00:32:35;12.97;;;9.70;;
75165;SDS011;63747;48.042;10.088;2024-01-06T00:35:35;14.37;;;10.33;;
75165;SDS011;63747;48.042;10.088;2024-01-06T00:38:36;11.27;;;8.73;;
75165;SDS011;63747;48.042;10.088;2024-01-06T00:41:37;12.57;;;9.10;;
75165;SDS011;63747;48.042;10.088;2024-01-06T00:44:37;10.40;;;8.83;;
75165;SDS011;63747;48.042;10.088;2024-01-06T00:47:38;9.80;;;8.80;;
75165;SDS011;63747;48.042;10.088;2024-01-06T00:50:39;8.80;;;7.87;;
75165;SDS011;63747;48.042;10.088;2024-01-06T00:53:39;9.60;;;7.50;;
75165;SDS011;63747;48.042;10.088;2024-01-06T00:56:40;7.80;;;6.57;;
75165;SDS011;63747;48.042;10.088;2024-01-06T00:59:42;8.98;;;6.68;;
75165;SDS011;63747;48.042;10.088;2024-01-06T01:02:42;8.17;;;6.33;;
75165;SDS011;63747;48.042;10.088;2024-01-06T01:05:43;8.47;;;6.63;;
75165;SDS011;63747;48.042;10.088;2024-01-06T01:08:44;8.03;;;6.07;;
75165;SDS011;63747;48.042;10.088;2024-01-06T01:11:45;7.00;;;6.18;;
75165;SDS011;63747;48.042;10.088;2024-01-06T01:14:46;7.77;;;6.03;;
75165;SDS011;63747;48.042;10.088;2024-01-06T01:17:46;8.30;;;6.67;;
75165;SDS011;63747;48.042;10.088;2024-01-06T01:20:47;9.77;;;6.20;;
75165;SDS011;63747;48.042;10.088;2024-01-06T01:23:48;9.50;;;6.17;;
75165;SDS011;63747;48.042;10.088;2024-01-06T01:26:49;7.53;;;5.57;;
75165;SDS011;63747;48.042;10.088;2024-01-06T01:29:50;7.70;;;5.90;;
75165;SDS011;63747;48.042;10.088;2024-01-06T01:32:52;8.18;;;5.80;;
75165;SDS011;63747;48.042;10.088;2024-01-06T01:35:53;7.87;;;5.33;;
75165;SDS011;63747;48.042;10.088;2024-01-06T01:38:54;9.87;;;6.27;;
75165;SDS011;63747;48.042;10.088;2024-01-06T01:41:54;11.17;;;6.50;;
75165;SDS011;63747;48.042;10.088;2024-01-06T01:44:55;11.23;;;6.47;;
75165;SDS011;63747;48.042;10.088;2024-01-06T01:47:56;8.23;;;4.40;;
75165;SDS011;63747;48.042;10.088;2024-01-06T01:50:56;5.80;;;4.53;;
75165;SDS011;63747;48.042;10.088;2024-01-06T01:53:57;6.73;;;4.50;;
75165;SDS011;63747;48.042;10.088;2024-01-06T01:56:59;6.53;;;5.05;;
75165;SDS011;63747;48.042;10.088;2024-01-06T02:00:00;7.03;;;5.37;;
75165;SDS011;63747;48.042;10.088;2024-01-06T02:03:02;7.82;;;5.93;;
75165;SDS011;63747;48.042;10.088;2024-01-06T02:06:04;6.53;;;5.20;;
75165;SDS011;63747;48.042;10.088;2024-01-06T02:09:05;5.30;;;4.53;;
75165;SDS011;63747;48.042;10.088;2024-01-06T02:12:06;6.73;;;5.23;;
75165;SDS011;63747;48.042;10.088;2024-01-06T02:15:07;8.18;;;5.72;;
75165;SDS011;63747;48.042;10.088;2024-01-06T02:18:08;7.40;;;5.23;;
75165;SDS011;63747;48.042;10.088;2024-01-06T02:21:09;8.20;;;5.30;;
75165;SDS011;63747;48.042;10.088;2024-01-06T02:24:10;8.32;;;5.80;;
75165;SDS011;63747;48.042;10.088;2024-01-06T02:27:10;6.67;;;5.00;;
75165;SDS011;63747;48.042;10.088;2024-01-06T02:30:11;6.93;;;4.67;;
75165;SDS011;63747;48.042;10.088;2024-01-06T02:33:12;8.57;;;4.27;;
75165;SDS011;63747;48.042;10.088;2024-01-06T02:36:13;7.40;;;4.87;;
75165;SDS011;63747;48.042;10.088;2024-01-06T02:39:13;5.67;;;4.00;;
75165;SDS011;63747;48.042;10.088;2024-01-06T02:42:14;7.83;;;5.17;;
75165;SDS011;63747;48.042;10.088;2024-01-06T02:45:15;6.83;;;5.23;;
75165;SDS011;63747;48.042;10.088;2024-01-06T02:48:15;7.70;;;5.37;;
75165;SDS011;63747;48.042;10.088;2024-01-06T02:51:16;7.43;;;4.00;;
75165;SDS011;63747;48.042;10.088;2024-01-06T02:54:17;5.93;;;4.27;;
75165;SDS011;63747;48.042;10.088;2024-01-06T02:57:18;6.80;;;3.97;;
75165;SDS011;63747;48.042;10.088;2024-01-06T03:00:18;8.60;;;3.90;;
75165;SDS011;63747;48.042;10.088;2024-01-06T03:03:19;6.67;;;3.57;;
75165;SDS011;63747;48.042;10.088;2024-01-06T03:06:20;5.53;;;3.67;;
75165;SDS011;63747;48.042;10.088;2024-01-06T03:09:20;4.77;;;3.77;;
75165;SDS011;63747;48.042;10.088;2024-01-06T03:12:21;6.10;;;3.80;;
75165;SDS011;63747;48.042;10.088;2024-01-06T03:15:22;5.37;;;3.47;;
75165;SDS011;63747;48.042;10.088;2024-01-06T03:18:22;7.10;;;3.30;;
75165;SDS011;63747;48.042;10.088;2024-01-06T03:21:23;5.67;;;3.37;;
75165;SDS011;63747;48.042;10.088;2024-01-06T03:24:25;5.82;;;3.33;;
75165;SDS011;63747;48.042;10.088;2024-01-06T03:27:27;7.40;;;3.47;;
75165;SDS011;63747;48.042;10.088;2024-01-06T03:30:28;5.27;;;3.17;;
75165;SDS011;63747;48.042;10.088;2024-01-06T03:33:28;4.07;;;2.70;;
75165;SDS011;63747;48.042;10.088;2024-01-06T03:36:29;6.20;;;3.20;;
75165;SDS011;63747;48.042;10.088;2024-01-06T03:39:30;6.07;;;3.50;;
75165;SDS011;63747;48.042;10.088;2024-01-06T03:42:30;9.23;;;4.00;;
75165;SDS011;63747;48.042;10.088;2024-01-06T03:45:32;6.15;;;3.17;;
75165;SDS011;63747;48.042;10.088;2024-01-06T03:48:32;5.87;;;2.70;;
75165;SDS011;63747;48.042;10.088;2024-01-06T03:51:33;3.33;;;2.40;;
75165;SDS011;63747;48.042;10.088;2024-01-06T03:54:34;5.23;;;2.60;;
75165;SDS011;63747;48.042;10.088;2024-01-06T03:57:34;5.57;;;3.03;;
75165;SDS011;63747;48.042;10.088;2024-01-06T04:00:35;5.90;;;3.07;;
75165;SDS011;63747;48.042;10.088;2024-01-06T04:03:36;5.90;;;2.80;;
75165;SDS011;63747;48.042;10.088;2024-01-06T04:06:36;5.03;;;3.00;;
75165;SDS011;63747;48.042;10.088;2024-01-06T04:09:37;4.47;;;2.87;;
75165;SDS011;63747;48.042;10.088;2024-01-06T04:12:38;6.97;;;3.47;;
75165;SDS011;63747;48.042;10.088;2024-01-06T04:15:38;5.37;;;3.03;;
75165;SDS011;63747;48.042;10.088;2024-01-06T04:18:39;5.83;;;3.00;;
75165;SDS011;63747;48.042;10.088;2024-01-06T04:21:40;6.27;;;3.60;;
75165;SDS011;63747;48.042;10.088;2024-01-06T04:24:41;5.23;;;3.70;;
75165;SDS011;63747;48.042;10.088;2024-01-06T04:27:41;6.03;;;3.13;;
75165;SDS011;63747;48.042;10.088;2024-01-06T04:30:42;4.83;;;3.47;;
75165;SDS011;63747;48.042;10.088;2024-01-06T04:33:43;5.70;;;3.27;;
75165;SDS011;63747;48.042;10.088;2024-01-06T04:36:43;6.90;;;3.60;;
75165;SDS011;63747;48.042;10.088;2024-01-06T04:39:44;5.63;;;3.23;;
75165;SDS011;63747;48.042;10.088;2024-01-06T04:42:45;5.10;;;3.57;;
75165;SDS011;63747;48.042;10.088;2024-01-06T04:45:46;5.03;;;3.17;;
75165;SDS011;63747;48.042;10.088;2024-01-06T04:48:46;6.07;;;3.40;;
75165;SDS011;63747;48.042;10.088;2024-01-06T04:51:48;6.05;;;3.35;;
75165;SDS011;63747;48.042;10.088;2024-01-06T04:54:48;12.45;;;5.72;;
75165;SDS011;63747;48.042;10.088;2024-01-06T04:57:49;4.60;;;3.63;;
75165;SDS011;63747;48.042;10.088;2024-01-06T05:00:50;5.97;;;3.27;;
75165;SDS011;63747;48.042;10.088;2024-01-06T05:03:52;6.43;;;3.67;;
75165;SDS011;63747;48.042;10.088;2024-01-06T05:06:52;5.17;;;3.03;;
75165;SDS011;63747;48.042;10.088;2024-01-06T05:09:54;5.03;;;3.40;;
75165;SDS011;63747;48.042;10.088;2024-01-06T05:12:56;5.03;;;3.20;;
75165;SDS011;63747;48.042;10.088;2024-01-06T05:15:56;6.80;;;3.53;;
75165;SDS011;63747;48.042;10.088;2024-01-06T05:18:57;7.17;;;2.93;;
75165;SDS011;63747;48.042;10.088;2024-01-06T05:21:58;4.23;;;2.80;;
75165;SDS011;63747;48.042;10.088;2024-01-06T05:24:58;8.50;;;4.00;;
75165;SDS011;63747;48.042;10.088;2024-01-06T05:27:59;5.77;;;3.27;;
75165;SDS011;63747;48.042;10.088;2024-01-06T05:31:00;5.00;;;3.37;;
75165;SDS011;63747;48.042;10.088;2024-01-06T05:34:00;7.37;;;3.73;;
75165;SDS011;63747;48.042;10.088;2024-01-06T05:37:01;6.37;;;3.73;;
75165;SDS011;63747;48.042;10.088;2024-01-06T05:40:02;5.40;;;3.33;;
75165;SDS011;63747;48.042;10.088;2024-01-06T05:43:03;5.90;;;3.53;;
75165;SDS011;63747;48.042;10.088;2024-01-06T05:46:04;5.70;;;3.17;;
75165;SDS011;63747;48.042;10.088;2024-01-06T05:49:05;4.50;;;2.77;;
75165;SDS011;63747;48.042;10.088;2024-01-06T05:52:06;4.73;;;2.87;;
75165;SDS011;63747;48.042;10.088;2024-01-06T05:55:06;6.73;;;3.07;;
75165;SDS011;63747;48.042;10.088;2024-01-06T05:58:07;5.13;;;3.22;;
75165;SDS011;63747;48.042;10.088;2024-01-06T06:01:08;5.77;;;3.10;;
75165;SDS011;63747;48.042;10.088;2024-01-06T06:04:09;6.27;;;3.30;;
75165;SDS011;63747;48.042;10.088;2024-01-06T06:07:11;5.65;;;3.20;;
75165;SDS011;63747;48.042;10.088;2024-01-06T06:10:12;4.60;;;3.23;;
75165;SDS011;63747;48.042;10.088;2024-01-06T06:13:13;7.77;;;4.07;;
75165;SDS011;63747;48.042;10.088;2024-01-06T06:16:13;5.93;;;3.13;;
75165;SDS011;63747;48.042;10.088;2024-01-06T06:19:14;7.63;;;3.30;;
75165;SDS011;63747;48.042;10.088;2024-01-06T06:22:15;5.33;;;3.30;;
75165;SDS011;63747;48.042;10.088;2024-01-06T06:25:15;4.53;;;3.23;;
75165;SDS011;63747;48.042;10.088;2024-01-06T06:28:16;6.87;;;3.40;;
75165;SDS011;63747;48.042;10.088;2024-01-06T06:31:17;8.10;;;4.60;;
75165;SDS011;63747;48.042;10.088;2024-01-06T06:34:17;7.93;;;4.90;;
75165;SDS011;63747;48.042;10.088;2024-01-06T06:37:18;9.55;;;5.13;;
75165;SDS011;63747;48.042;10.088;2024-01-06T06:40:19;7.57;;;4.33;;
75165;SDS011;63747;48.042;10.088;2024-01-06T06:43:20;9.87;;;5.70;;
75165;SDS011;63747;48.042;10.088;2024-01-06T06:46:21;8.37;;;5.80;;
75165;SDS011;63747;48.042;10.088;2024-01-06T06:49:21;7.23;;;5.50;;
75165;SDS011;63747;48.042;10.088;2024-01-06T06:52:22;7.67;;;5.83;;
75165;SDS011;63747;48.042;10.088;2024-01-06T06:55:23;6.93;;;5.33;;
75165;SDS011;63747;48.042;10.088;2024-01-06T06:58:23;7.00;;;5.20;;
75165;SDS011;63747;48.042;10.088;2024-01-06T07:01:24;5.73;;;4.37;;
75165;SDS011;63747;48.042;10.088;2024-01-06T07:04:25;7.40;;;5.20;;
75165;SDS011;63747;48.042;10.088;2024-01-06T07:07:27;7.90;;;4.88;;
75165;SDS011;63747;48.042;10.088;2024-01-06T07:10:27;6.13;;;5.17;;
75165;SDS011;63747;48.042;10.088;2024-01-06T07:13:28;5.70;;;4.40;;
75165;SDS011;63747;48.042;10.088;2024-01-06T07:16:29;11.80;;;6.10;;
75165;SDS011;63747;48.042;10.088;2024-01-06T07:19:31;7.57;;;5.93;;
75165;SDS011;63747;48.042;10.088;2024-01-06T07:22:32;8.57;;;5.45;;
75165;SDS011;63747;48.042;10.088;2024-01-06T07:25:37;8.27;;;5.72;;
75165;SDS011;63747;48.042;10.088;2024-01-06T07:28:37;6.53;;;5.70;;
75165;SDS011;63747;48.042;10.088;2024-01-06T07:31:38;6.97;;;4.63;;
75165;SDS011;63747;48.042;10.088;2024-01-06T07:34:39;6.10;;;4.97;;
75165;SDS011;63747;48.042;10.088;2024-01-06T07:37:39;5.50;;;4.90;;
75165;SDS011;63747;48.042;10.088;2024-01-06T07:40:40;5.67;;;5.07;;
75165;SDS011;63747;48.042;10.088;2024-01-06T07:43:42;10.85;;;8.48;;
75165;SDS011;63747;48.042;10.088;2024-01-06T07:46:42;8.57;;;6.37;;
75165;SDS011;63747;48.042;10.088;2024-01-06T07:49:43;6.40;;;4.87;;
75165;SDS011;63747;48.042;10.088;2024-01-06T07:52:44;5.20;;;3.93;;
75165;SDS011;63747;48.042;10.088;2024-01-06T07:55:44;7.00;;;5.43;;
75165;SDS011;63747;48.042;10.088;2024-01-06T07:58:45;5.10;;;4.60;;
75165;SDS011;63747;48.042;10.088;2024-01-06T08:01:46;7.47;;;5.63;;
75165;SDS011;63747;48.042;10.088;2024-01-06T08:04:46;10.70;;;9.10;;
75165;SDS011;63747;48.042;10.088;2024-01-06T08:07:47;7.37;;;6.67;;
75165;SDS011;63747;48.042;10.088;2024-01-06T08:10:48;7.10;;;6.40;;
75165;SDS011;63747;48.042;10.088;2024-01-06T08:13:48;6.30;;;5.67;;
75165;SDS011;63747;48.042;10.088;2024-01-06T08:16:49;6.73;;;5.90;;
75165;SDS011;63747;48.042;10.088;2024-01-06T08:19:50;7.50;;;5.93;;
75165;SDS011;63747;48.042;10.088;2024-01-06T08:22:50;6.60;;;5.27;;
75165;SDS011;63747;48.042;10.088;2024-01-06T08:25:51;5.27;;;4.77;;
75165;SDS011;63747;48.042;10.088;2024-01-06T08:28:52;6.90;;;4.80;;
75165;SDS011;63747;48.042;10.088;2024-01-06T08:31:53;7.90;;;5.17;;
75165;SDS011;63747;48.042;10.088;2024-01-06T08:34:54;6.75;;;6.05;;
75165;SDS011;63747;48.042;10.088;2024-01-06T08:37:55;8.33;;;6.60;;
75165;SDS011;63747;48.042;10.088;2024-01-06T08:40:55;7.80;;;6.17;;
75165;SDS011;63747;48.042;10.088;2024-01-06T08:43:56;7.43;;;6.60;;
75165;SDS011;63747;48.042;10.088;2024-01-06T08:46:57;6.90;;;6.20;;
75165;SDS011;63747;48.042;10.088;2024-01-06T08:49:58;7.80;;;7.00;;
75165;SDS011;63747;48.042;10.088;2024-01-06T08:52:59;7.07;;;6.33;;
75165;SDS011;63747;48.042;10.088;2024-01-06T08:55:59;6.80;;;6.10;;
75165;SDS011;63747;48.042;10.088;2024-01-06T08:59:01;8.43;;;6.03;;
75165;SDS011;63747;48.042;10.088;2024-01-06T09:02:02;7.18;;;6.05;;
75165;SDS011;63747;48.042;10.088;2024-01-06T09:05:02;7.90;;;6.27;;
75165;SDS011;63747;48.042;10.088;2024-01-06T09:08:04;7.90;;;6.53;;
75165;SDS011;63747;48.042;10.088;2024-01-06T09:11:05;10.35;;;7.53;;
75165;SDS011;63747;48.042;10.088;2024-01-06T09:14:06;8.97;;;7.37;;
75165;SDS011;63747;48.042;10.088;2024-01-06T09:17:06;10.07;;;7.50;;
75165;SDS011;63747;48.042;10.088;2024-01-06T09:20:07;8.47;;;7.60;;
75165;SDS011;63747;48.042;10.088;2024-01-06T09:23:08;10.63;;;9.55;;
75165;SDS011;63747;48.042;10.088;2024-01-06T09:29:10;10.80;;;9.02;;
75165;SDS011;63747;48.042;10.088;2024-01-06T09:32:11;10.27;;;8.33;;
75165;SDS011;63747;48.042;10.088;2024-01-06T09:35:13;12.45;;;8.27;;
75165;SDS011;63747;48.042;10.088;2024-01-06T09:38:14;15.10;;;9.05;;
75165;SDS011;63747;48.042;10.088;2024-01-06T09:41:15;12.93;;;8.90;;
75165;SDS011;63747;48.042;10.088;2024-01-06T09:44:16;10.73;;;9.00;;
75165;SDS011;63747;48.042;10.088;2024-01-06T09:47:17;10.77;;;9.13;;
75165;SDS011;63747;48.042;10.088;2024-01-06T09:53:19;12.57;;;8.70;;
75165;SDS011;63747;48.042;10.088;2024-01-06T09:56:21;12.35;;;9.38;;
75165;SDS011;63747;48.042;10.088;2024-01-06T09:59:24;12.85;;;10.68;;
75165;SDS011;63747;48.042;10.088;2024-01-06T10:02:25;15.48;;;11.05;;
75165;SDS011;63747;48.042;10.088;2024-01-06T10:05:25;15.17;;;9.70;;
75165;SDS011;63747;48.042;10.088;2024-01-06T10:08:26;11.13;;;9.00;;
75165;SDS011;63747;48.042;10.088;2024-01-06T10:11:27;8.57;;;6.53;;
75165;SDS011;63747;48.042;10.088;2024-01-06T10:14:27;9.53;;;5.50;;
75165;SDS011;63747;48.042;10.088;2024-01-06T10:17:28;12.50;;;8.43;;
75165;SDS011;63747;48.042;10.088;2024-01-06T10:20:29;9.00;;;6.87;;
75165;SDS011;63747;48.042;10.088;2024-01-06T10:23:29;11.27;;;9.23;;
75165;SDS011;63747;48.042;10.088;2024-01-06T10:26:32;9.63;;;7.85;;
75165;SDS011;63747;48.042;10.088;2024-01-06T10:29:33;9.37;;;7.57;;
75165;SDS011;63747;48.042;10.088;2024-01-06T10:32:34;9.93;;;8.80;;
75165;SDS011;63747;48.042;10.088;2024-01-06T10:35:36;13.63;;;10.63;;
75165;SDS011;63747;48.042;10.088;2024-01-06T10:38:37;12.45;;;9.57;;
75165;SDS011;63747;48.042;10.088;2024-01-06T10:41:41;11.88;;;9.07;;
75165;SDS011;63747;48.042;10.088;2024-01-06T10:44:42;9.55;;;7.45;;
75165;SDS011;63747;48.042;10.088;2024-01-06T10:50:47;6.88;;;5.50;;
75165;SDS011;63747;48.042;10.088;2024-01-06T10:53:48;10.27;;;6.07;;
75165;SDS011;63747;48.042;10.088;2024-01-06T10:56:50;5.78;;;4.53;;
75165;SDS011;63747;48.042;10.088;2024-01-06T10:59:52;5.30;;;4.50;;
75165;SDS011;63747;48.042;10.088;2024-01-06T11:02:53;5.45;;;4.53;;
75165;SDS011;63747;48.042;10.088;2024-01-06T11:05:56;10.48;;;7.25;;
75165;SDS011;63747;48.042;10.088;2024-01-06T11:12:01;6.15;;;4.70;;
75165;SDS011;63747;48.042;10.088;2024-01-06T11:15:02;5.43;;;4.30;;
75165;SDS011;63747;48.042;10.088;2024-01-06T11:24:19;5.22;;;4.20;;
75165;SDS011;63747;48.042;10.088;2024-01-06T11:27:21;6.63;;;4.40;;
75165;SDS011;63747;48.042;10.088;2024-01-06T11:30:24;5.65;;;4.38;;
75165;SDS011;63747;48.042;10.088;2024-01-06T11:33:26;5.90;;;4.88;;
75165;SDS011;63747;48.042;10.088;2024-01-06T11:36:27;5.93;;;5.03;;
75165;SDS011;63747;48.042;10.088;2024-01-06T11:39:34;8.03;;;5.83;;
75165;SDS011;63747;48.042;10.088;2024-01-06T11:42:38;6.65;;;5.20;;
75165;SDS011;63747;48.042;10.088;2024-01-06T11:45:42;7.03;;;4.63;;
75165;SDS011;63747;48.042;10.088;2024-01-06T11:48:42;7.83;;;4.70;;
75165;SDS011;63747;48.042;10.088;2024-01-06T11:51:50;5.47;;;4.90;;
75165;SDS011;63747;48.042;10.088;2024-01-06T11:54:53;8.85;;;4.65;;
75165;SDS011;63747;48.042;10.088;2024-01-06T11:57:55;5.82;;;3.90;;
75165;SDS011;63747;48.042;10.088;2024-01-06T12:03:58;7.75;;;5.22;;
75165;SDS011;63747;48.042;10.088;2024-01-06T12:07:06;8.20;;;4.18;;
75165;SDS011;63747;48.042;10.088;2024-01-06T12:10:07;5.80;;;3.67;;
75165;SDS011;63747;48.042;10.088;2024-01-06T12:13:08;7.00;;;4.10;;
75165;SDS011;63747;48.042;10.088;2024-01-06T12:16:12;6.00;;;3.80;;
75165;SDS011;63747;48.042;10.088;2024-01-06T12:19:12;6.87;;;3.60;;
75165;SDS011;63747;48.042;10.088;2024-01-06T12:22:14;5.50;;;4.30;;
75165;SDS011;63747;48.042;10.088;2024-01-06T12:25:15;4.70;;;3.88;;
75165;SDS011;63747;48.042;10.088;2024-01-06T12:28:16;6.27;;;3.80;;
75165;SDS011;63747;48.042;10.088;2024-01-06T12:31:17;8.03;;;3.80;;
75165;SDS011;63747;48.042;10.088;2024-01-06T12:34:19;7.22;;;3.80;;
75165;SDS011;63747;48.042;10.088;2024-01-06T12:40:22;5.72;;;4.10;;
75165;SDS011;63747;48.042;10.088;2024-01-06T12:43:23;8.30;;;4.00;;
75165;SDS011;63747;48.042;10.088;2024-01-06T12:46:23;5.00;;;3.50;;
75165;SDS011;63747;48.042;10.088;2024-01-06T12:49:24;5.70;;;3.70;;
75165;SDS011;63747;48.042;10.088;2024-01-06T12:52:25;7.87;;;4.17;;
75165;SDS011;63747;48.042;10.088;2024-01-06T12:55:25;7.13;;;3.33;;
75165;SDS011;63747;48.042;10.088;2024-01-06T12:58:26;7.07;;;3.50;;
75165;SDS011;63747;48.042;10.088;2024-01-06T13:01:27;7.97;;;3.83;;
75165;SDS011;63747;48.042;10.088;2024-01-06T13:04:28;7.70;;;4.20;;
75165;SDS011;63747;48.042;10.088;2024-01-06T13:07:28;10.20;;;5.23;;
75165;SDS011;63747;48.042;10.088;2024-01-06T13:10:29;11.73;;;5.90;;
75165;SDS011;63747;48.042;10.088;2024-01-06T13:13:30;9.60;;;5.20;;
75165;SDS011;63747;48.042;10.088;2024-01-06T13:16:31;8.55;;;5.20;;
75165;SDS011;63747;48.042;10.088;2024-01-06T13:19:32;6.63;;;4.37;;
75165;SDS011;63747;48.042;10.088;2024-01-06T13:25:34;7.38;;;3.40;;
75165;SDS011;63747;48.042;10.088;2024-01-06T13:28:35;6.90;;;3.22;;
75165;SDS011;63747;48.042;10.088;2024-01-06T13:31:36;6.47;;;3.27;;
75165;SDS011;63747;48.042;10.088;2024-01-06T13:34:37;7.47;;;3.00;;
75165;SDS011;63747;48.042;10.088;2024-01-06T13:37:38;6.03;;;3.07;;
75165;SDS011;63747;48.042;10.088;2024-01-06T13:40:39;6.83;;;3.20;;
75165;SDS011;63747;48.042;10.088;2024-01-06T13:43:39;7.47;;;3.50;;
75165;SDS011;63747;48.042;10.088;2024-01-06T13:46:40;6.70;;;3.10;;
75165;SDS011;63747;48.042;10.088;2024-01-06T13:49:44;7.57;;;4.20;;
75165;SDS011;63747;48.042;10.088;2024-01-06T13:52:45;9.57;;;4.23;;
75165;SDS011;63747;48.042;10.088;2024-01-06T13:55:46;6.30;;;3.63;;
75165;SDS011;63747;48.042;10.088;2024-01-06T13:58:47;10.17;;;4.27;;
75165;SDS011;63747;48.042;10.088;2024-01-06T14:01:47;10.80;;;5.73;;
75165;SDS011;63747;48.042;10.088;2024-01-06T14:04:48;12.57;;;6.20;;
75165;SDS011;63747;48.042;10.088;2024-01-06T14:07:49;9.07;;;5.13;;
75165;SDS011;63747;48.042;10.088;2024-01-06T14:10:50;8.17;;;4.30;;
75165;SDS011;63747;48.042;10.088;2024-01-06T14:13:51;9.77;;;4.80;;
75165;SDS011;63747;48.042;10.088;2024-01-06T14:16:52;10.57;;;4.72;;
75165;SDS011;63747;48.042;10.088;2024-01-06T14:19:53;4.95;;;3.47;;
75165;SDS011;63747;48.042;10.088;2024-01-06T14:22:54;7.20;;;3.33;;
75165;SDS011;63747;48.042;10.088;2024-01-06T14:25:55;8.03;;;3.43;;
75165;SDS011;63747;48.042;10.088;2024-01-06T14:28:55;4.37;;;2.20;;
75165;SDS011;63747;48.042;10.088;2024-01-06T14:31:57;5.90;;;3.28;;
75165;SDS011;63747;48.042;10.088;2024-01-06T14:34:58;10.80;;;4.17;;
75165;SDS011;63747;48.042;10.088;2024-01-06T14:37:59;8.00;;;5.67;;
75165;SDS011;63747;48.042;10.088;2024-01-06T14:41:00;8.73;;;6.50;;
75165;SDS011;63747;48.042;10.088;2024-01-06T14:44:00;12.67;;;6.70;;
75165;SDS011;63747;48.042;10.088;2024-01-06T14:47:01;7.73;;;5.53;;
75165;SDS011;63747;48.042;10.088;2024-01-06T14:50:02;10.77;;;5.87;;
75165;SDS011;63747;48.042;10.088;2024-01-06T14:53:03;8.57;;;4.45;;
75165;SDS011;63747;48.042;10.088;2024-01-06T14:56:04;10.95;;;5.75;;
75165;SDS011;63747;48.042;10.088;2024-01-06T14:59:04;7.85;;;5.40;;
75165;SDS011;63747;48.042;10.088;2024-01-06T15:02:08;8.55;;;5.30;;
75165;SDS011;63747;48.042;10.088;2024-01-06T15:05:09;6.93;;;5.10;;
75165;SDS011;63747;48.042;10.088;2024-01-06T15:08:09;6.27;;;4.63;;
75165;SDS011;63747;48.042;10.088;2024-01-06T15:11:10;9.97;;;6.17;;
75165;SDS011;63747;48.042;10.088;2024-01-06T15:14:11;9.93;;;5.37;;
75165;SDS011;63747;48.042;10.088;2024-01-06T15:17:12;8.57;;;4.88;;
75165;SDS011;63747;48.042;10.088;2024-01-06T15:20:13;8.67;;;5.27;;
75165;SDS011;63747;48.042;10.088;2024-01-06T15:23:13;10.10;;;4.40;;
75165;SDS011;63747;48.042;10.088;2024-01-06T15:26:24;10.27;;;6.50;;
75165;SDS011;63747;48.042;10.088;2024-01-06T15:29:26;14.25;;;8.75;;
75165;SDS011;63747;48.042;10.088;2024-01-06T15:32:26;12.57;;;8.70;;
75165;SDS011;63747;48.042;10.088;2024-01-06T15:35:27;18.67;;;12.03;;
75165;SDS011;63747;48.042;10.088;2024-01-06T15:38:28;19.00;;;12.00;;
75165;SDS011;63747;48.042;10.088;2024-01-06T15:41:28;18.03;;;11.20;;
75165;SDS011;63747;48.042;10.088;2024-01-06T15:44:29;16.07;;;10.60;;
75165;SDS011;63747;48.042;10.088;2024-01-06T15:47:33;14.40;;;9.48;;
75165;SDS011;63747;48.042;10.088;2024-01-06T15:50:34;12.10;;;7.13;;
75165;SDS011;63747;48.042;10.088;2024-01-06T15:53:35;9.63;;;6.50;;
75165;SDS011;63747;48.042;10.088;2024-01-06T15:56:36;13.03;;;8.50;;
75165;SDS011;63747;48.042;10.088;2024-01-06T15:59:37;11.57;;;8.03;;
75165;SDS011;63747;48.042;10.088;2024-01-06T16:02:37;9.40;;;6.97;;
75165;SDS011;63747;48.042;10.088;2024-01-06T16:05:38;9.00;;;6.50;;
75165;SDS011;63747;48.042;10.088;2024-01-06T16:08:39;11.60;;;7.67;;
75165;SDS011;63747;48.042;10.088;2024-01-06T16:11:39;9.73;;;7.40;;
75165;SDS011;63747;48.042;10.088;2024-01-06T16:14:40;11.30;;;8.50;;
75165;SDS011;63747;48.042;10.088;2024-01-06T16:17:41;10.70;;;8.10;;
75165;SDS011;63747;48.042;10.088;2024-01-06T16:20:42;7.07;;;4.40;;
75165;SDS011;63747;48.042;10.088;2024-01-06T16:23:42;6.30;;;3.50;;
75165;SDS011;63747;48.042;10.088;2024-01-06T16:26:43;6.07;;;4.27;;
75165;SDS011;63747;48.042;10.088;2024-01-06T16:29:45;8.48;;;4.40;;
75165;SDS011;63747;48.042;10.088;2024-01-06T16:32:46;7.27;;;4.33;;
75165;SDS011;63747;48.042;10.088;2024-01-06T16:35:50;5.95;;;4.43;;
75165;SDS011;63747;48.042;10.088;2024-01-06T16:38:51;8.03;;;4.63;;
75165;SDS011;63747;48.042;10.088;2024-01-06T16:41:52;5.73;;;4.00;;
75165;SDS011;63747;48.042;10.088;2024-01-06T16:44:52;6.40;;;4.53;;
75165;SDS011;63747;48.042;10.088;2024-01-06T16:47:54;12.10;;;5.57;;
75165;SDS011;63747;48.042;10.088;2024-01-06T16:50:55;10.67;;;6.00;;
75165;SDS011;63747;48.042;10.088;2024-01-06T16:53:55;14.33;;;8.33;;
75165;SDS011;63747;48.042;10.088;2024-01-06T16:56:56;14.03;;;8.80;;
75165;SDS011;63747;48.042;10.088;2024-01-06T17:00:02;17.10;;;8.13;;
75165;SDS011;63747;48.042;10.088;2024-01-06T17:03:04;11.85;;;7.20;;
75165;SDS011;63747;48.042;10.088;2024-01-06T17:06:05;10.07;;;5.60;;
75165;SDS011;63747;48.042;10.088;2024-01-06T17:09:07;9.60;;;5.25;;
75165;SDS011;63747;48.042;10.088;2024-01-06T17:12:07;4.80;;;3.73;;
75165;SDS011;63747;48.042;10.088;2024-01-06T17:15:08;6.33;;;3.57;;
75165;SDS011;63747;48.042;10.088;2024-01-06T17:18:09;6.32;;;3.40;;
75165;SDS011;63747;48.042;10.088;2024-01-06T17:21:10;8.93;;;4.53;;
75165;SDS011;63747;48.042;10.088;2024-01-06T17:24:14;7.15;;;4.53;;
75165;SDS011;63747;48.042;10.088;2024-01-06T17:27:15;6.60;;;5.23;;
75165;SDS011;63747;48.042;10.088;2024-01-06T17:30:16;10.47;;;6.93;;
75165;SDS011;63747;48.042;10.088;2024-01-06T17:33:17;7.68;;;3.75;;
75165;SDS011;63747;48.042;10.088;2024-01-06T17:36:18;11.67;;;6.83;;
75165;SDS011;63747;48.042;10.088;2024-01-06T17:39:18;8.73;;;5.70;;
75165;SDS011;63747;48.042;10.088;2024-01-06T17:42:19;5.33;;;4.00;;
75165;SDS011;63747;48.042;10.088;2024-01-06T17:45:22;6.85;;;4.80;;
75165;SDS011;63747;48.042;10.088;2024-01-06T17:48:24;5.88;;;4.25;;
75165;SDS011;63747;48.042;10.088;2024-01-06T17:51:26;8.05;;;4.93;;
75165;SDS011;63747;48.042;10.088;2024-01-06T17:54:29;7.60;;;3.90;;
75165;SDS011;63747;48.042;10.088;2024-01-06T17:57:29;5.87;;;4.07;;
75165;SDS011;63747;48.042;10.088;2024-01-06T18:00:34;4.97;;;4.28;;
75165;SDS011;63747;48.042;10.088;2024-01-06T18:03:34;8.53;;;5.10;;
75165;SDS011;63747;48.042;10.088;2024-01-06T18:06:35;5.83;;;4.80;;
75165;SDS011;63747;48.042;10.088;2024-01-06T18:09:36;8.10;;;5.23;;
75165;SDS011;63747;48.042;10.088;2024-01-06T18:12:37;9.00;;;6.13;;
75165;SDS011;63747;48.042;10.088;2024-01-06T18:15:40;11.30;;;8.25;;
75165;SDS011;63747;48.042;10.088;2024-01-06T18:18:41;11.70;;;8.57;;